createdAt,value
2024-03-22T00:00:28.682Z,35.11
2024-03-22T00:01:28.738Z,35.15
2024-03-22T00:02:28.761Z,35.16
2024-03-22T00:03:28.818Z,35.17
2024-03-22T00:04:28.922Z,35.17
2024-03-22T00:05:28.921Z,35.14
2024-03-22T00:06:28.991Z,35.14
2024-03-22T00:07:29.043Z,35.11
2024-03-22T00:08:29.080Z,35.10
2024-03-22T00:09:29.129Z,35.06
2024-03-22T00:10:29.180Z,35.06
2024-03-22T00:11:29.238Z,35.04
2024-03-22T00:12:29.290Z,35.05
2024-03-22T00:13:29.343Z,35.03
2024-03-22T00:14:29.379Z,35.04
2024-03-22T00:15:29.444Z,35.04
2024-03-22T00:16:29.505Z,35.09
2024-03-22T00:17:29.562Z,35.11
2024-03-22T00:18:29.594Z,35.12
2024-03-22T00:19:29.637Z,35.13
2024-03-22T00:20:29.674Z,35.13
2024-03-22T00:21:29.769Z,35.17
2024-03-22T00:22:29.782Z,35.21
2024-03-22T00:23:29.826Z,35.23
2024-03-22T00:24:29.899Z,35.27
2024-03-22T00:25:29.949Z,35.27
2024-03-22T00:26:30.045Z,35.29
2024-03-22T00:27:30.047Z,35.28
2024-03-22T00:28:30.078Z,35.27
2024-03-22T00:29:30.169Z,35.28
2024-03-22T00:30:30.183Z,35.28
2024-03-22T00:31:30.227Z,35.26
2024-03-22T00:32:30.309Z,35.27
2024-03-22T00:33:30.338Z,35.26
2024-03-22T00:34:30.391Z,35.26
2024-03-22T00:35:30.466Z,35.26
2024-03-22T00:36:30.490Z,35.25
2024-03-22T00:37:30.534Z,35.23
2024-03-22T00:38:30.595Z,35.25
2024-03-22T00:39:30.620Z,35.27
2024-03-22T00:40:30.655Z,35.27
2024-03-22T00:41:30.738Z,35.28
2024-03-22T00:42:30.780Z,35.27
2024-03-22T00:43:30.813Z,35.27
2024-03-22T00:44:30.885Z,35.24
2024-03-22T00:45:30.910Z,35.22
2024-03-22T00:46:30.971Z,35.22
2024-03-22T00:47:31.056Z,35.22
2024-03-22T00:48:31.074Z,35.22
2024-03-22T00:49:31.103Z,35.20
2024-03-22T00:50:31.151Z,35.20
2024-03-22T00:51:31.210Z,35.21
2024-03-22T00:52:31.244Z,35.18
2024-03-22T00:53:31.310Z,35.18
2024-03-22T00:54:31.959Z,35.18
2024-03-22T00:55:31.410Z,35.19
2024-03-22T00:56:31.464Z,35.19
2024-03-22T00:57:31.540Z,35.14
2024-03-22T00:58:31.569Z,35.12
2024-03-22T00:59:31.594Z,35.13
2024-03-22T01:00:31.655Z,35.14
2024-03-22T01:01:31.699Z,35.15
2024-03-22T01:02:31.739Z,35.14
2024-03-22T01:03:31.773Z,35.14
2024-03-22T01:04:31.809Z,35.14
2024-03-22T01:05:31.866Z,35.15
2024-03-22T01:06:31.941Z,35.14
2024-03-22T01:07:31.963Z,35.14
2024-03-22T01:08:32.024Z,35.15
2024-03-22T01:09:32.073Z,35.16
2024-03-22T01:10:32.120Z,35.16
2024-03-22T01:11:32.183Z,35.17
2024-03-22T01:12:32.196Z,35.19
2024-03-22T01:13:32.237Z,35.18
2024-03-22T01:14:32.271Z,35.19
2024-03-22T01:15:32.306Z,35.18
2024-03-22T01:16:32.373Z,35.20
2024-03-22T01:17:32.377Z,35.18
2024-03-22T01:18:32.427Z,35.17
2024-03-22T01:19:32.440Z,35.18
2024-03-22T01:20:32.475Z,35.16
2024-03-22T01:21:32.522Z,35.15
2024-03-22T01:22:32.553Z,35.16
2024-03-22T01:23:32.661Z,35.15
2024-03-22T01:24:32.622Z,35.15
2024-03-22T01:25:32.637Z,35.16
2024-03-22T01:26:32.696Z,35.16
2024-03-22T01:27:32.736Z,35.14
2024-03-22T01:28:32.768Z,35.15
2024-03-22T01:29:32.825Z,35.14
2024-03-22T01:30:32.840Z,35.14
2024-03-22T01:31:32.921Z,35.13
2024-03-22T01:32:32.919Z,35.12
2024-03-22T01:33:32.980Z,35.12
2024-03-22T01:34:33.006Z,35.10
2024-03-22T01:35:33.042Z,35.10
2024-03-22T01:36:33.062Z,35.10
2024-03-22T01:37:33.103Z,35.10
2024-03-22T01:38:33.155Z,35.09
2024-03-22T01:39:33.179Z,35.10
2024-03-22T01:40:33.233Z,35.09
2024-03-22T01:41:33.232Z,35.07
2024-03-22T01:42:33.287Z,35.08
2024-03-22T01:43:33.313Z,35.06
2024-03-22T01:44:33.337Z,35.07
2024-03-22T01:45:33.349Z,35.07
2024-03-22T01:46:33.440Z,35.07
2024-03-22T01:47:33.449Z,35.06
2024-03-22T01:48:33.490Z,35.07
2024-03-22T01:49:33.516Z,35.07
2024-03-22T01:50:33.551Z,35.08
2024-03-22T01:51:33.577Z,35.06
2024-03-22T01:52:33.628Z,35.04
2024-03-22T01:53:33.660Z,35.06
2024-03-22T01:54:33.678Z,35.05
2024-03-22T01:55:33.702Z,35.04
2024-03-22T01:56:33.755Z,35.04
2024-03-22T01:57:33.768Z,35.04
2024-03-22T01:58:33.806Z,35.05
2024-03-22T01:59:33.840Z,35.00
2024-03-22T02:00:33.878Z,35.01
2024-03-22T02:01:33.902Z,35.01
2024-03-22T02:02:33.937Z,35.01
2024-03-22T02:03:33.970Z,35.00
2024-03-22T02:04:33.998Z,34.99
2024-03-22T02:05:34.077Z,34.97
2024-03-22T02:06:34.056Z,35.00
2024-03-22T02:07:34.060Z,34.98
2024-03-22T02:08:34.113Z,34.97
2024-03-22T02:09:34.131Z,35.00
2024-03-22T02:10:34.177Z,35.00
2024-03-22T02:11:34.218Z,35.02
2024-03-22T02:12:34.226Z,35.03
2024-03-22T02:13:34.245Z,35.03
2024-03-22T02:14:34.271Z,35.03
2024-03-22T02:15:34.282Z,35.05
2024-03-22T02:16:34.364Z,35.02
2024-03-22T02:17:34.352Z,35.02
2024-03-22T02:18:34.390Z,35.01
2024-03-22T02:19:34.406Z,34.98
2024-03-22T02:20:34.449Z,34.98
2024-03-22T02:21:34.505Z,34.97
2024-03-22T02:22:34.505Z,34.99
2024-03-22T02:23:34.557Z,34.95
2024-03-22T02:24:34.594Z,34.95
2024-03-22T02:25:34.587Z,34.96
2024-03-22T02:26:34.656Z,34.95
2024-03-22T02:27:34.697Z,34.96
2024-03-22T02:28:34.706Z,34.99
2024-03-22T02:29:34.750Z,34.99
2024-03-22T02:30:34.765Z,34.98
2024-03-22T02:31:34.847Z,34.95
2024-03-22T02:32:34.863Z,34.93
2024-03-22T02:33:34.860Z,34.92
2024-03-22T02:34:39.156Z,34.89
2024-03-22T02:35:35.952Z,34.90
2024-03-22T02:36:34.935Z,34.87
2024-03-22T02:37:34.929Z,34.84
2024-03-22T02:38:34.941Z,34.82
2024-03-22T02:39:34.937Z,34.82
2024-03-22T02:40:34.944Z,34.80
2024-03-22T02:41:34.974Z,34.78
2024-03-22T02:42:34.931Z,34.76
2024-03-22T02:43:34.921Z,34.71
2024-03-22T02:44:34.946Z,34.69
2024-03-22T02:45:34.925Z,34.66
2024-03-22T02:46:34.933Z,34.65
2024-03-22T02:47:34.946Z,34.63
2024-03-22T02:48:34.926Z,34.61
2024-03-22T02:49:34.938Z,34.61
2024-03-22T02:50:34.990Z,34.60
2024-03-22T02:51:34.926Z,34.59
2024-03-22T02:52:34.975Z,34.60
2024-03-22T02:53:34.992Z,34.59
2024-03-22T02:54:34.951Z,34.62
2024-03-22T02:55:34.995Z,34.60
2024-03-22T02:56:35.061Z,34.63
2024-03-22T02:57:35.063Z,34.62
2024-03-22T02:58:35.122Z,34.59
2024-03-22T02:59:35.165Z,34.59
2024-03-22T03:00:35.193Z,34.59
2024-03-22T03:01:35.220Z,34.62
2024-03-22T03:02:35.272Z,34.60
2024-03-22T03:03:35.287Z,34.60
2024-03-22T03:04:35.322Z,34.61
2024-03-22T03:05:35.394Z,34.60
2024-03-22T03:06:35.404Z,34.61
2024-03-22T03:07:35.411Z,34.60
2024-03-22T03:08:35.536Z,34.60
2024-03-22T03:09:35.505Z,34.61
2024-03-22T03:10:35.520Z,34.64
2024-03-22T03:11:35.585Z,34.67
2024-03-22T03:12:35.604Z,34.68
2024-03-22T03:13:35.674Z,34.69
2024-03-22T03:14:35.728Z,34.68
2024-03-22T03:15:35.721Z,34.70
2024-03-22T03:16:35.789Z,34.69
2024-03-22T03:17:35.870Z,34.71
2024-03-22T03:18:35.873Z,34.71
2024-03-22T03:19:35.914Z,34.70
2024-03-22T03:20:35.983Z,34.65
2024-03-22T03:21:36.042Z,34.62
2024-03-22T03:22:36.061Z,34.61
2024-03-22T03:23:36.140Z,34.56
2024-03-22T03:24:36.179Z,34.54
2024-03-22T03:25:36.215Z,34.53
2024-03-22T03:26:36.251Z,34.51
2024-03-22T03:27:36.342Z,34.49
2024-03-22T03:28:36.330Z,34.48
2024-03-22T03:29:36.413Z,34.47
2024-03-22T03:30:36.447Z,34.45
2024-03-22T03:31:36.495Z,34.46
2024-03-22T03:32:36.547Z,34.41
2024-03-22T03:33:36.603Z,34.39
2024-03-22T03:34:36.662Z,34.37
2024-03-22T03:35:36.736Z,34.36
2024-03-22T03:36:36.766Z,34.31
2024-03-22T03:37:36.802Z,34.24
2024-03-22T03:38:36.882Z,34.21
2024-03-22T03:39:36.916Z,34.17
2024-03-22T03:40:36.941Z,34.13
2024-03-22T03:41:37.016Z,34.06
2024-03-22T03:42:37.050Z,34.00
2024-03-22T03:43:37.090Z,33.96
2024-03-22T03:44:37.166Z,33.90
2024-03-22T03:45:37.176Z,33.84
2024-03-22T03:46:37.254Z,33.80
2024-03-22T03:47:37.315Z,33.79
2024-03-22T03:48:37.341Z,33.76
2024-03-22T03:49:37.373Z,33.71
2024-03-22T03:50:37.443Z,33.68
2024-03-22T03:51:37.636Z,33.62
2024-03-22T03:52:37.534Z,33.59
2024-03-22T03:53:37.566Z,33.58
2024-03-22T03:54:37.643Z,33.57
2024-03-22T03:55:37.659Z,33.59
2024-03-22T03:56:37.737Z,33.57
2024-03-22T03:57:37.783Z,33.55
2024-03-22T03:58:37.817Z,33.56
2024-03-22T03:59:37.898Z,33.51
2024-03-22T04:00:37.896Z,33.47
2024-03-22T04:01:37.934Z,33.46
2024-03-22T04:02:37.951Z,33.41
2024-03-22T04:03:37.982Z,33.37
2024-03-22T04:04:38.016Z,33.32
2024-03-22T04:05:38.071Z,33.28
2024-03-22T04:06:38.105Z,33.23
2024-03-22T04:07:38.108Z,33.18
2024-03-22T04:08:38.182Z,33.16
2024-03-22T04:09:38.183Z,33.11
2024-03-22T04:10:38.207Z,33.07
2024-03-22T04:11:38.278Z,33.02
2024-03-22T04:12:38.292Z,32.93
2024-03-22T04:13:38.359Z,32.88
2024-03-22T04:14:38.458Z,32.82
2024-03-22T04:15:38.407Z,32.76
2024-03-22T04:16:38.481Z,32.74
2024-03-22T04:17:38.503Z,32.71
2024-03-22T04:18:38.546Z,32.69
2024-03-22T04:19:38.574Z,32.69
2024-03-22T04:20:38.703Z,32.66
2024-03-22T04:21:38.663Z,32.67
2024-03-22T04:22:38.678Z,32.64
2024-03-22T04:23:38.701Z,32.66
2024-03-22T04:24:38.738Z,32.66
2024-03-22T04:25:38.768Z,32.63
2024-03-22T04:26:38.883Z,32.63
2024-03-22T04:27:46.075Z,32.68
2024-03-22T04:28:46.071Z,32.64
2024-03-22T04:29:46.086Z,32.63
2024-03-22T04:30:46.095Z,32.62
2024-03-22T04:31:53.292Z,32.66
2024-03-22T04:32:53.299Z,32.60
2024-03-22T04:33:53.304Z,32.56
2024-03-22T04:34:53.317Z,32.51
2024-03-22T04:35:53.294Z,32.47
2024-03-22T04:36:53.323Z,32.40
2024-03-22T04:37:53.298Z,32.37
2024-03-22T04:38:53.313Z,32.34
2024-03-22T04:39:53.291Z,32.28
2024-03-22T04:40:53.307Z,32.26
2024-03-22T04:41:53.345Z,32.24
2024-03-22T04:42:53.313Z,32.20
2024-03-22T04:43:53.325Z,32.15
2024-03-22T04:44:53.319Z,32.09
2024-03-22T04:45:53.303Z,32.01
2024-03-22T04:46:53.340Z,31.96
2024-03-22T04:47:53.341Z,31.90
2024-03-22T04:48:53.324Z,31.83
2024-03-22T04:49:53.355Z,31.79
2024-03-22T04:50:53.320Z,31.76
2024-03-22T04:51:53.344Z,31.73
2024-03-22T04:52:53.352Z,31.70
2024-03-22T04:53:53.347Z,31.70
2024-03-22T04:54:53.335Z,31.72
2024-03-22T04:55:53.426Z,31.73
2024-03-22T04:56:53.356Z,31.76
2024-03-22T04:57:53.351Z,31.80
2024-03-22T04:58:53.351Z,31.82
2024-03-22T04:59:53.363Z,31.88
2024-03-22T05:00:53.368Z,31.93
2024-03-22T05:01:53.353Z,31.99
2024-03-22T05:02:53.337Z,32.02
2024-03-22T05:03:53.350Z,32.07
2024-03-22T05:04:53.354Z,32.11
2024-03-22T05:05:53.353Z,32.16
2024-03-22T05:06:53.371Z,32.21
2024-03-22T05:07:53.377Z,32.24
2024-03-22T05:08:53.384Z,32.30
2024-03-22T05:09:53.355Z,32.37
2024-03-22T05:10:53.409Z,32.41
2024-03-22T05:11:53.376Z,32.46
2024-03-22T05:12:53.383Z,32.49
2024-03-22T05:13:53.372Z,32.50
2024-03-22T05:14:53.369Z,32.51
2024-03-22T05:15:53.377Z,32.49
2024-03-22T05:16:53.379Z,32.48
2024-03-22T05:17:53.388Z,32.50
2024-03-22T05:18:53.390Z,32.49
2024-03-22T05:19:53.397Z,32.51
2024-03-22T05:20:53.403Z,32.49
2024-03-22T05:21:53.372Z,32.44
2024-03-22T05:22:53.377Z,32.40
2024-03-22T05:23:53.394Z,32.35
2024-03-22T05:24:53.432Z,32.34
2024-03-22T05:25:53.463Z,32.25
2024-03-22T05:26:53.505Z,32.22
2024-03-22T05:27:53.521Z,32.20
2024-03-22T05:28:53.574Z,32.14
2024-03-22T05:29:53.610Z,32.09
2024-03-22T05:30:53.645Z,32.04
2024-03-22T05:31:53.680Z,32.02
2024-03-22T05:32:53.722Z,31.97
2024-03-22T05:33:53.765Z,31.95
2024-03-22T05:34:53.823Z,31.94
2024-03-22T05:35:53.813Z,31.93
2024-03-22T05:36:53.837Z,31.90
2024-03-22T05:37:53.865Z,31.89
2024-03-22T05:38:53.912Z,31.90
2024-03-22T05:39:53.942Z,31.93
2024-03-22T05:40:53.965Z,31.90
2024-03-22T05:41:54.026Z,31.86
2024-03-22T05:42:54.039Z,31.83
2024-03-22T05:43:54.080Z,31.84
2024-03-22T05:44:54.135Z,31.86
2024-03-22T05:45:54.173Z,31.85
2024-03-22T05:46:54.169Z,31.87
2024-03-22T05:47:54.210Z,31.87
2024-03-22T05:48:54.278Z,31.87
2024-03-22T05:49:54.251Z,31.86
2024-03-22T05:50:54.341Z,31.87
2024-03-22T05:51:54.331Z,31.89
2024-03-22T05:52:54.374Z,31.85
2024-03-22T05:53:55.231Z,31.85
2024-03-22T05:54:54.435Z,31.80
2024-03-22T05:55:54.485Z,31.77
2024-03-22T05:56:54.506Z,31.73
2024-03-22T05:57:54.560Z,31.69
2024-03-22T05:58:55.371Z,31.64
2024-03-22T05:59:54.603Z,31.63
2024-03-22T06:02:24.680Z,32.85
2024-03-22T06:03:01.512Z,31.80
2024-03-22T06:04:01.472Z,31.67
2024-03-22T06:05:01.471Z,31.62
2024-03-22T06:06:01.461Z,31.57
2024-03-22T06:07:01.497Z,31.52
2024-03-22T06:08:01.516Z,31.46
2024-03-22T06:09:02.031Z,31.43
2024-03-22T06:10:02.200Z,33.04
2024-03-22T06:11:01.667Z,33.35
2024-03-22T06:12:01.708Z,33.78
2024-03-22T06:13:01.799Z,34.17
2024-03-22T06:14:01.793Z,34.46
2024-03-22T06:15:01.861Z,34.61
2024-03-22T06:16:01.943Z,35.03
2024-03-22T06:17:02.017Z,35.13
2024-03-22T06:18:02.033Z,35.51
2024-03-22T06:19:02.082Z,35.92
2024-03-22T06:20:02.166Z,35.88
2024-03-22T06:21:02.206Z,36.18
2024-03-22T06:22:02.291Z,36.27
2024-03-22T06:23:02.479Z,36.10
2024-03-22T06:24:02.429Z,36.10
2024-03-22T06:25:02.534Z,35.95
2024-03-22T06:26:02.603Z,35.99
2024-03-22T06:27:02.603Z,36.10
2024-03-22T06:28:02.656Z,36.27
2024-03-22T06:29:02.711Z,35.89
2024-03-22T06:30:02.825Z,35.93
2024-03-22T06:31:02.725Z,35.86
2024-03-22T06:32:02.833Z,35.46
2024-03-22T06:33:03.163Z,35.00
2024-03-22T06:34:02.852Z,35.26
2024-03-22T06:35:03.988Z,34.38
2024-03-22T06:36:03.065Z,33.81
2024-03-22T06:37:03.601Z,33.94
2024-03-22T06:38:03.088Z,34.30
2024-03-22T06:39:03.144Z,33.90
2024-03-22T06:40:03.215Z,33.32
2024-03-22T06:41:03.270Z,33.35
2024-03-22T06:42:03.618Z,33.43
2024-03-22T06:43:03.490Z,33.86
2024-03-22T06:44:03.433Z,33.76
2024-03-22T06:45:03.452Z,33.93
2024-03-22T06:47:26.534Z,35.25
2024-03-22T06:48:03.491Z,34.44
2024-03-22T06:49:03.547Z,34.92
2024-03-22T06:50:03.505Z,34.91
2024-03-22T06:51:03.511Z,35.12
2024-03-22T06:52:03.467Z,35.17
2024-03-22T06:53:03.524Z,35.06
2024-03-22T06:54:04.453Z,35.48
2024-03-22T06:55:03.539Z,35.86
2024-03-22T06:56:03.544Z,36.30
2024-03-22T06:57:03.553Z,36.74
2024-03-22T06:58:03.615Z,37.05
2024-03-22T06:59:03.631Z,37.11
2024-03-22T07:00:03.626Z,37.22
2024-03-22T07:01:03.619Z,37.29
2024-03-22T07:02:03.678Z,37.48
2024-03-22T07:03:03.709Z,37.87
2024-03-22T07:04:03.715Z,38.40
2024-03-22T07:05:03.711Z,38.60
2024-03-22T07:06:04.483Z,38.80
2024-03-22T07:07:03.788Z,38.66
2024-03-22T07:08:05.112Z,38.61
2024-03-22T07:09:03.892Z,38.70
2024-03-22T07:10:03.904Z,38.84
2024-03-22T07:11:03.951Z,38.47
2024-03-22T07:12:04.080Z,38.89
2024-03-22T07:13:03.979Z,38.87
2024-03-22T07:14:04.022Z,38.81
2024-03-22T07:15:04.035Z,38.96
2024-03-22T07:16:04.149Z,38.86
2024-03-22T07:17:04.145Z,38.95
2024-03-22T07:18:04.221Z,39.15
2024-03-22T07:19:04.262Z,39.41
2024-03-22T07:20:04.310Z,39.37
2024-03-22T07:21:04.378Z,39.43
2024-03-22T07:22:04.414Z,39.20
2024-03-22T07:23:04.422Z,39.30
2024-03-22T07:24:04.469Z,39.52
2024-03-22T07:25:04.481Z,39.30
2024-03-22T07:26:05.518Z,39.29
2024-03-22T07:27:04.689Z,39.31
2024-03-22T07:28:04.797Z,39.03
2024-03-22T07:29:04.777Z,38.94
2024-03-22T07:30:04.778Z,38.90
2024-03-22T07:31:04.828Z,38.78
2024-03-22T07:32:04.829Z,39.10
2024-03-22T07:33:05.079Z,39.24
2024-03-22T07:34:04.839Z,38.93
2024-03-22T07:35:04.815Z,38.55
2024-03-22T07:36:04.891Z,38.38
2024-03-22T07:37:14.011Z,37.67
2024-03-22T07:38:06.070Z,37.81
2024-03-22T07:39:04.923Z,38.04
2024-03-22T07:40:04.957Z,38.04
2024-03-22T07:41:04.936Z,38.03
2024-03-22T07:42:04.962Z,37.88
2024-03-22T07:43:04.936Z,37.73
2024-03-22T07:44:04.912Z,37.93
2024-03-22T07:45:04.925Z,37.97
2024-03-22T07:46:04.958Z,37.70
2024-03-22T07:47:04.902Z,37.45
2024-03-22T07:48:05.078Z,37.30
2024-03-22T07:49:04.943Z,36.94
2024-03-22T07:50:04.987Z,37.18
2024-03-22T07:51:05.031Z,36.99
2024-03-22T07:52:05.112Z,36.73
2024-03-22T07:53:05.562Z,36.38
2024-03-22T07:54:05.230Z,36.17
2024-03-22T07:55:05.452Z,36.35
2024-03-22T07:56:05.427Z,36.26
2024-03-22T07:57:05.387Z,36.49
2024-03-22T07:58:05.562Z,36.33
2024-03-22T07:59:05.428Z,36.18
2024-03-22T08:00:05.480Z,36.15
2024-03-22T08:01:05.517Z,35.79
2024-03-22T08:02:05.818Z,35.36
2024-03-22T08:03:05.652Z,35.20
2024-03-22T08:04:06.124Z,35.25
2024-03-22T08:05:06.560Z,34.95
2024-03-22T08:06:05.727Z,34.85
2024-03-22T08:07:05.728Z,34.91
2024-03-22T08:08:05.814Z,34.92
2024-03-22T08:09:05.813Z,34.72
2024-03-22T08:10:05.910Z,34.57
2024-03-22T08:11:05.847Z,34.45
2024-03-22T08:12:05.889Z,34.39
2024-03-22T08:13:05.911Z,34.48
2024-03-22T08:14:05.963Z,34.47
2024-03-22T08:15:06.018Z,34.35
2024-03-22T08:16:05.988Z,34.24
2024-03-22T08:17:05.973Z,34.18
2024-03-22T08:18:06.086Z,34.14
2024-03-22T08:19:06.094Z,34.06
2024-03-22T08:20:06.119Z,34.06
2024-03-22T08:21:06.060Z,34.03
2024-03-22T08:22:06.138Z,33.99
2024-03-22T08:23:06.572Z,34.23
2024-03-22T08:24:06.094Z,34.32
2024-03-22T08:25:06.082Z,34.31
2024-03-22T08:26:06.171Z,34.34
2024-03-22T08:27:06.143Z,34.22
2024-03-22T08:28:11.675Z,34.10
2024-03-22T08:29:07.189Z,34.19
2024-03-22T08:30:06.222Z,33.98
2024-03-22T08:31:06.234Z,34.05
2024-03-22T08:32:06.291Z,33.77
2024-03-22T08:33:06.634Z,34.39
2024-03-22T08:34:06.311Z,35.02
2024-03-22T08:35:06.474Z,35.26
2024-03-22T08:36:06.458Z,34.89
2024-03-22T08:37:06.506Z,34.74
2024-03-22T08:38:06.592Z,34.54
2024-03-22T08:39:06.552Z,34.71
2024-03-22T08:40:06.574Z,34.77
2024-03-22T08:41:06.582Z,34.61
2024-03-22T08:42:06.618Z,34.50
2024-03-22T08:43:07.098Z,34.79
2024-03-22T08:44:06.624Z,35.17
2024-03-22T08:45:06.699Z,35.00
2024-03-22T08:46:06.754Z,34.56
2024-03-22T08:47:06.819Z,34.44
2024-03-22T08:48:06.812Z,34.30
2024-03-22T08:49:06.863Z,34.68
2024-03-22T08:50:06.886Z,34.35
2024-03-22T08:51:06.958Z,34.33
2024-03-22T08:52:06.958Z,34.17
2024-03-22T08:53:07.147Z,34.34
2024-03-22T08:54:06.987Z,33.82
2024-03-22T08:55:07.099Z,33.99
2024-03-22T08:56:07.131Z,34.09
2024-03-22T08:57:07.037Z,34.13
2024-03-22T08:58:07.045Z,34.16
2024-03-22T08:59:07.110Z,34.11
2024-03-22T09:00:07.071Z,33.98
2024-03-22T09:01:07.278Z,33.96
2024-03-22T09:02:07.064Z,33.90
2024-03-22T09:03:07.156Z,33.96
2024-03-22T09:04:07.094Z,33.98
2024-03-22T09:05:07.118Z,33.99
2024-03-22T09:06:08.996Z,33.90
2024-03-22T09:07:07.172Z,33.86
2024-03-22T09:08:07.182Z,34.01
2024-03-22T09:09:07.268Z,33.95
2024-03-22T09:10:07.282Z,33.95
2024-03-22T09:11:07.292Z,33.77
2024-03-22T09:12:07.317Z,34.31
2024-03-22T09:13:07.307Z,34.57
2024-03-22T09:14:07.373Z,34.58
2024-03-22T09:15:07.377Z,34.60
2024-03-22T09:16:07.554Z,34.61
2024-03-22T09:17:07.565Z,34.48
2024-03-22T09:18:07.594Z,34.38
2024-03-22T09:19:09.414Z,33.86
2024-03-22T09:20:07.622Z,33.69
2024-03-22T09:21:07.572Z,33.63
2024-03-22T09:22:07.531Z,33.41
2024-03-22T09:23:07.523Z,33.22
2024-03-22T09:24:07.592Z,33.31
2024-03-22T09:25:07.608Z,33.48
2024-03-22T09:26:07.548Z,33.63
2024-03-22T09:27:07.577Z,33.69
2024-03-22T09:28:07.591Z,33.79
2024-03-22T09:29:07.759Z,33.84
2024-03-22T09:30:07.567Z,33.82
2024-03-22T09:31:07.583Z,33.56
2024-03-22T09:32:07.593Z,33.72
2024-03-22T09:33:07.586Z,34.94
2024-03-22T09:34:07.598Z,35.13
2024-03-22T09:35:07.598Z,35.12
2024-03-22T09:36:07.654Z,34.99
2024-03-22T09:37:07.588Z,35.48
2024-03-22T09:38:07.611Z,35.54
2024-03-22T09:39:07.590Z,35.57
2024-03-22T09:40:07.553Z,35.77
2024-03-22T09:41:07.542Z,35.94
2024-03-22T09:42:07.558Z,36.58
2024-03-22T09:43:07.577Z,36.64
2024-03-22T09:44:07.681Z,37.02
2024-03-22T09:45:07.560Z,37.16
2024-03-22T09:46:07.581Z,37.34
2024-03-22T09:47:07.578Z,37.33
2024-03-22T09:48:07.607Z,36.98
2024-03-22T09:49:07.726Z,37.32
2024-03-22T09:50:07.568Z,37.77
2024-03-22T09:51:07.576Z,37.33
2024-03-22T09:52:07.616Z,37.03
2024-03-22T09:53:07.662Z,36.54
2024-03-22T09:54:07.639Z,36.11
2024-03-22T09:55:07.702Z,36.10
2024-03-22T09:56:07.611Z,36.16
2024-03-22T09:57:07.551Z,36.27
2024-03-22T09:58:07.554Z,36.20
2024-03-22T09:59:07.624Z,36.40
2024-03-22T10:00:07.642Z,36.28
2024-03-22T10:01:07.564Z,36.00
2024-03-22T10:02:07.593Z,35.88
2024-03-22T10:03:07.601Z,35.81
2024-03-22T10:04:07.597Z,35.68
2024-03-22T10:05:07.571Z,36.06
2024-03-22T10:06:07.579Z,37.36
2024-03-22T10:07:07.578Z,38.16
2024-03-22T10:08:07.589Z,37.43
2024-03-22T10:09:07.639Z,35.53
2024-03-22T10:10:07.608Z,35.93
2024-03-22T10:11:07.613Z,35.91
2024-03-22T10:12:07.620Z,36.57
2024-03-22T10:13:07.631Z,36.52
2024-03-22T10:14:12.816Z,36.79
2024-03-22T10:15:09.396Z,37.35
2024-03-22T10:16:07.591Z,37.47
2024-03-22T10:17:07.597Z,37.51
2024-03-22T10:18:07.601Z,37.57
2024-03-22T10:19:07.612Z,37.69
2024-03-22T10:20:07.624Z,37.66
2024-03-22T10:21:07.584Z,37.44
2024-03-22T10:22:08.522Z,37.70
2024-03-22T10:23:07.591Z,37.42
2024-03-22T10:24:08.630Z,38.00
2024-03-22T10:25:07.610Z,37.84
2024-03-22T10:26:07.620Z,36.81
2024-03-22T10:27:07.588Z,36.71
2024-03-22T10:28:07.677Z,36.29
2024-03-22T10:29:07.600Z,36.46
2024-03-22T10:30:07.638Z,36.11
2024-03-22T10:31:07.673Z,36.11
2024-03-22T10:32:07.739Z,36.49
2024-03-22T10:33:07.610Z,35.71
2024-03-22T10:34:07.678Z,35.63
2024-03-22T10:35:07.692Z,35.80
2024-03-22T10:36:07.732Z,35.75
2024-03-22T10:37:07.795Z,35.83
2024-03-22T10:38:07.972Z,35.40
2024-03-22T10:39:08.117Z,35.67
2024-03-22T10:40:08.111Z,36.36
2024-03-22T10:41:07.982Z,36.10
2024-03-22T10:42:08.048Z,36.89
2024-03-22T10:43:08.150Z,36.05
2024-03-22T10:44:08.181Z,34.97
2024-03-22T10:45:08.139Z,33.79
2024-03-22T10:46:08.327Z,33.20
2024-03-22T10:47:08.365Z,33.09
2024-03-22T10:48:08.355Z,34.85
2024-03-22T10:49:08.666Z,35.38
2024-03-22T10:50:08.567Z,35.17
2024-03-22T10:51:08.580Z,35.46
2024-03-22T10:52:08.536Z,35.69
2024-03-22T10:53:08.561Z,35.38
2024-03-22T10:54:08.638Z,35.27
2024-03-22T10:55:10.975Z,35.64
2024-03-22T10:56:08.666Z,35.53
2024-03-22T10:57:08.700Z,35.58
2024-03-22T10:58:08.579Z,36.01
2024-03-22T10:59:08.663Z,36.41
2024-03-22T11:00:09.103Z,36.29
2024-03-22T11:01:08.599Z,35.34
2024-03-22T11:02:09.254Z,35.44
2024-03-22T11:03:09.314Z,35.73
2024-03-22T11:04:09.583Z,37.19
2024-03-22T11:05:09.089Z,36.23
2024-03-22T11:06:09.113Z,36.14
2024-03-22T11:07:09.185Z,35.50
2024-03-22T11:08:09.289Z,35.51
2024-03-22T11:09:09.880Z,35.29
2024-03-22T11:10:09.559Z,35.18
2024-03-22T11:11:08.926Z,35.15
2024-03-22T11:12:08.958Z,35.35
2024-03-22T11:13:09.112Z,35.60
2024-03-22T11:14:09.456Z,35.65
2024-03-22T11:15:09.197Z,35.40
2024-03-22T11:16:09.441Z,35.83
2024-03-22T11:17:09.254Z,36.85
2024-03-22T11:18:09.637Z,36.91
2024-03-22T11:19:09.363Z,35.92
2024-03-22T11:20:09.435Z,35.98
2024-03-22T11:21:09.479Z,36.05
2024-03-22T11:22:09.560Z,35.77
2024-03-22T11:23:09.602Z,35.77
2024-03-22T11:24:10.175Z,35.94
2024-03-22T11:25:09.781Z,35.84
2024-03-22T11:26:09.785Z,35.73
2024-03-22T11:27:10.544Z,35.78
2024-03-22T11:28:11.439Z,35.89
2024-03-22T11:29:10.202Z,35.64
2024-03-22T11:30:09.771Z,35.53
2024-03-22T11:31:09.839Z,35.34
2024-03-22T11:32:09.882Z,34.98
2024-03-22T11:33:09.784Z,35.45
2024-03-22T11:34:09.767Z,36.21
2024-03-22T11:35:10.161Z,36.50
2024-03-22T11:36:09.796Z,36.37
2024-03-22T11:37:09.767Z,35.70
2024-03-22T11:38:09.822Z,35.18
2024-03-22T11:39:09.768Z,34.65
2024-03-22T11:40:10.200Z,33.83
2024-03-22T11:41:09.788Z,33.80
2024-03-22T11:42:09.807Z,33.57
2024-03-22T11:43:09.807Z,33.20
2024-03-22T11:44:09.815Z,33.25
2024-03-22T11:45:09.816Z,33.14
2024-03-22T11:46:09.826Z,33.14
2024-03-22T11:47:09.816Z,32.20
2024-03-22T11:48:09.797Z,31.67
2024-03-22T11:49:09.773Z,31.48
2024-03-22T11:50:09.869Z,31.25
2024-03-22T11:51:09.810Z,31.20
2024-03-22T11:52:09.798Z,30.75
2024-03-22T11:53:09.787Z,30.67
2024-03-22T11:54:09.785Z,30.66
2024-03-22T11:55:10.202Z,30.48
2024-03-22T11:56:09.790Z,30.51
2024-03-22T11:57:09.800Z,30.40
2024-03-22T11:58:09.792Z,31.05
2024-03-22T11:59:09.836Z,31.09
2024-03-22T12:00:18.776Z,31.32
2024-03-22T12:01:27.748Z,31.40
2024-03-22T12:02:10.789Z,31.50
2024-03-22T12:03:09.834Z,31.81
2024-03-22T12:04:09.775Z,32.73
2024-03-22T12:05:10.131Z,33.04
2024-03-22T12:06:09.888Z,33.02
2024-03-22T12:07:09.817Z,33.51
2024-03-22T12:08:09.857Z,33.60
2024-03-22T12:09:09.819Z,33.89
2024-03-22T12:10:09.877Z,34.16
2024-03-22T12:11:09.807Z,34.36
2024-03-22T12:12:09.841Z,34.22
2024-03-22T12:13:09.824Z,34.24
2024-03-22T12:14:09.831Z,34.54
2024-03-22T12:15:10.159Z,34.67
2024-03-22T12:16:09.821Z,34.75
2024-03-22T12:17:09.808Z,34.31
2024-03-22T12:18:09.840Z,34.58
2024-03-22T12:19:09.793Z,32.38
2024-03-22T12:20:10.210Z,32.03
2024-03-22T12:21:09.828Z,32.38
2024-03-22T12:22:09.802Z,32.05
2024-03-22T12:23:09.846Z,32.24
2024-03-22T12:24:09.887Z,31.37
2024-03-22T12:25:10.167Z,31.22
2024-03-22T12:26:09.840Z,31.44
2024-03-22T12:27:16.038Z,31.56
2024-03-22T12:28:10.870Z,31.85
2024-03-22T12:29:09.846Z,32.09
2024-03-22T12:30:10.218Z,33.55
2024-03-22T12:31:09.867Z,33.90
2024-03-22T12:32:09.840Z,33.76
2024-03-22T12:33:10.073Z,31.62
2024-03-22T12:34:09.857Z,31.19
2024-03-22T12:35:10.169Z,31.81
2024-03-22T12:36:09.905Z,31.21
2024-03-22T12:37:09.949Z,31.23
2024-03-22T12:38:09.978Z,30.79
2024-03-22T12:39:10.041Z,30.41
2024-03-22T12:40:10.176Z,29.86
2024-03-22T12:41:10.150Z,28.83
2024-03-22T12:42:10.219Z,29.11
2024-03-22T12:43:10.289Z,30.13
2024-03-22T12:44:10.367Z,30.54
2024-03-22T12:45:10.444Z,30.72
2024-03-22T12:46:10.491Z,31.57
2024-03-22T12:47:10.521Z,31.85
2024-03-22T12:48:10.564Z,32.11
2024-03-22T12:49:10.627Z,32.10
2024-03-22T12:50:10.649Z,31.77
2024-03-22T12:51:10.691Z,31.37
2024-03-22T12:52:10.699Z,31.41
2024-03-22T12:53:10.705Z,31.29
2024-03-22T12:54:10.710Z,31.13
2024-03-22T12:55:11.208Z,29.85